Time;durP1;ratioP1;P1;durP2;ratioP2;P2;SDS_P1;SDS_P2;PMS_P1;PMS_P2;Temp;Humidity;BMP_temperature;BMP_pressure;BME280_temperature;BME280_humidity;BME280_pressure;Samples;Min_cycle;Max_cycle;Signal;HPM_P1;HPM_P2
2022/09/04 00:01:57;;;;;;;;;;;;;;;18.06;48.55;101198.25;5005481;28;19928;-68
2022/09/04 00:04:29;;;;;;;;;;;;;;;17.95;48.84;101202.56;4992417;28;20007;-68
2022/09/04 00:07:03;;;;;;;;;;;;;;;17.90;48.79;101199.41;5008084;28;19925;-68
2022/09/04 00:09:34;;;;;;;;;;;;;;;18.30;47.79;101199.88;5004974;28;19921;-68
2022/09/04 00:12:04;;;;;;;;;;;;;;;18.17;48.39;101195.63;4995800;28;19964;-68
2022/09/04 00:14:37;;;;;;;;;;;;;;;18.15;48.15;101193.09;4999706;28;20396;-68
2022/09/04 00:17:07;;;;;;;;;;;;;;;18.10;48.35;101202.38;5003067;28;20374;-68
2022/09/04 00:19:35;;;;;;;;;;;;;;;18.04;48.05;101198.34;5007096;28;20425;-68
2022/09/04 00:22:03;;;;;;;;;;;;;;;18.14;47.84;101193.22;5005519;28;19984;-68
2022/09/04 00:24:32;;;;;;;;;;;;;;;18.02;48.17;101199.44;5004807;28;19956;-68
2022/09/04 00:27:01;;;;;;;;;;;;;;;17.96;48.45;101203.38;5004896;28;19921;-68
2022/09/04 00:29:35;;;;;;;;;;;;;;;18.05;48.40;101205.38;5003274;28;19921;-68
2022/09/04 00:32:07;;;;;;;;;;;;;;;18.02;48.14;101208.25;5018169;28;20006;-68
2022/09/04 00:34:45;;;;;;;;;;;;;;;18.15;47.94;101211.66;5012750;28;19928;-68
2022/09/04 00:37:15;;;;;;;;;;;;;;;18.10;47.90;101211.19;5005053;28;19925;-68
2022/09/04 00:39:44;;;;;;;;;;;;;;;18.00;48.47;101213.66;5003188;28;20348;-68
2022/09/04 00:42:16;;;;;;;;;;;;;;;17.89;48.81;101213.63;5004688;28;19976;-68
2022/09/04 00:44:49;;;;;;;;;;;;;;;17.90;49.07;101225.94;5005482;28;19925;-68
2022/09/04 00:47:43;;;;;;;;;;;;;;;17.83;49.21;101221.19;5007147;28;19921;-68
2022/09/04 00:50:27;;;;;;;;;;;;;;;17.85;49.20;101225.41;4972298;28;19922;-68
2022/09/04 00:53:05;;;;;;;;;;;;;;;17.92;48.72;101233.78;4992854;28;19929;-68
2022/09/04 00:55:40;;;;;;;;;;;;;;;17.90;48.78;101236.53;4996688;28;19971;-68
2022/09/04 00:58:15;;;;;;;;;;;;;;;17.65;49.73;101226.06;4990993;28;19968;-69
2022/09/04 01:00:43;;;;;;;;;;;;;;;17.45;50.07;101240.72;5007372;28;19925;-69
2022/09/04 01:03:20;;;;;;;;;;;;;;;17.52;49.57;101241.97;5010097;28;19975;-68
2022/09/04 01:05:59;;;;;;;;;;;;;;;17.29;50.22;101234.84;5004258;28;19922;-68
2022/09/04 01:08:35;;;;;;;;;;;;;;;17.16;50.55;101241.97;4996711;28;19922;-69
2022/09/04 01:11:08;;;;;;;;;;;;;;;17.38;50.00;101238.63;4994006;28;19922;-68
2022/09/04 01:13:40;;;;;;;;;;;;;;;17.14;50.54;101243.91;4997172;28;19972;-68
2022/09/04 01:16:09;;;;;;;;;;;;;;;16.60;52.37;101250.38;4990254;28;19953;-68
2022/09/04 01:18:42;;;;;;;;;;;;;;;16.93;51.56;101248.88;4988295;28;19965;-68
2022/09/04 01:21:39;;;;;;;;;;;;;;;16.95;51.62;101254.94;4987557;28;19973;-68
2022/09/04 01:24:23;;;;;;;;;;;;;;;16.75;52.57;101263.41;4993192;28;19921;-68
2022/09/04 01:26:55;;;;;;;;;;;;;;;16.75;52.00;101258.13;4989600;28;19922;-68
2022/09/04 01:29:27;;;;;;;;;;;;;;;16.76;52.38;101261.63;5012710;28;20373;-68
2022/09/04 01:31:56;;;;;;;;;;;;;;;16.58;53.05;101257.59;5009758;28;20864;-68
2022/09/04 01:34:28;;;;;;;;;;;;;;;16.63;52.60;101268.72;5009163;28;20297;-68
2022/09/04 01:36:59;;;;;;;;;;;;;;;16.34;53.94;101268.84;4992331;28;20298;-68
2022/09/04 01:39:26;;;;;;;;;;;;;;;16.41;53.52;101267.47;4992925;28;20366;-68
2022/09/04 01:41:58;;;;;;;;;;;;;;;16.23;54.46;101268.72;4997577;28;19961;-68
2022/09/04 01:44:25;;;;;;;;;;;;;;;16.14;54.45;101269.34;5005999;28;20289;-68
2022/09/04 01:46:57;;;;;;;;;;;;;;;16.42;53.50;101274.47;5006940;28;20447;-69
2022/09/04 01:49:27;;;;;;;;;;;;;;;16.52;52.98;101267.59;5006326;28;20420;-69
2022/09/04 01:52:00;;;;;;;;;;;;;;;16.57;53.10;101264.69;5007593;28;19958;-69
2022/09/04 01:54:42;;;;;;;;;;;;;;;16.58;53.04;101260.25;5008358;28;19921;-69
2022/09/04 01:57:15;;;;;;;;;;;;;;;16.74;52.70;101259.06;5008227;28;20311;-68
2022/09/04 01:59:48;;;;;;;;;;;;;;;16.71;52.99;101258.44;4996887;28;20279;-68
2022/09/04 02:02:18;;;;;;;;;;;;;;;16.73;53.15;101262.69;5021468;28;19921;-68
2022/09/04 02:04:49;;;;;;;;;;;;;;;16.75;53.39;101262.56;5015125;28;20564;-68
2022/09/04 02:07:21;;;;;;;;;;;;;;;16.55;53.78;101267.38;5007960;28;19922;-68
2022/09/04 02:09:53;;;;;;;;;;;;;;;16.76;53.36;101272.22;5006360;28;19975;-68
2022/09/04 02:12:27;;;;;;;;;;;;;;;16.84;52.99;101267.22;5018201;28;20274;-68
2022/09/04 02:14:59;;;;;;;;;;;;;;;16.98;52.70;101275.06;5018968;28;19928;-68
2022/09/04 02:17:31;;;;;;;;;;;;;;;16.91;52.70;101265.84;5007084;28;19971;-68
2022/09/04 02:20:09;;;;;;;;;;;;;;;16.97;52.28;101265.41;5005533;28;20381;-68
2022/09/04 02:22:43;;;;;;;;;;;;;;;17.08;52.34;101265.50;5007090;28;20289;-68
2022/09/04 02:25:15;;;;;;;;;;;;;;;17.07;52.36;101270.94;5007707;28;20325;-68
2022/09/04 02:27:47;;;;;;;;;;;;;;;16.95;52.48;101268.19;5008743;28;19960;-68
2022/09/04 02:30:16;;;;;;;;;;;;;;;16.88;52.38;101263.44;5007722;28;20015;-68
2022/09/04 02:32:46;;;;;;;;;;;;;;;16.80;52.73;101263.09;5006116;28;20018;-68
2022/09/04 02:35:17;;;;;;;;;;;;;;;16.62;52.99;101264.38;5006292;28;20019;-68
2022/09/04 02:37:51;;;;;;;;;;;;;;;16.49;52.86;101261.66;4987588;28;19949;-68
2022/09/04 02:40:22;;;;;;;;;;;;;;;16.45;52.97;101266.31;5005305;28;20438;-68
2022/09/04 02:42:57;;;;;;;;;;;;;;;16.31;53.54;101266.41;5022038;28;19948;-68
2022/09/04 02:45:27;;;;;;;;;;;;;;;16.28;53.62;101257.81;5006703;28;19922;-68
2022/09/04 02:47:57;;;;;;;;;;;;;;;16.22;53.73;101266.19;4995154;28;19926;-68
2022/09/04 02:50:32;;;;;;;;;;;;;;;16.13;53.95;101259.69;4995660;28;19949;-68
2022/09/04 02:53:07;;;;;;;;;;;;;;;16.16;53.92;101267.44;4996277;28;19972;-68
2022/09/04 02:55:47;;;;;;;;;;;;;;;15.93;54.47;101265.44;4996448;28;19926;-68
2022/09/04 02:58:19;;;;;;;;;;;;;;;15.96;54.84;101265.28;4998819;28;19952;-68
2022/09/04 03:00:53;;;;;;;;;;;;;;;15.78;55.58;101263.81;5007036;28;20334;-68
2022/09/04 03:03:20;;;;;;;;;;;;;;;15.52;56.01;101265.50;5001518;28;19926;-68
2022/09/04 03:05:50;;;;;;;;;;;;;;;15.49;56.26;101271.81;4999508;28;19956;-68
2022/09/04 03:08:19;;;;;;;;;;;;;;;15.52;56.30;101268.97;5005552;28;19973;-68
2022/09/04 03:10:48;;;;;;;;;;;;;;;15.33;56.87;101276.34;4996030;28;19928;-68
2022/09/04 03:13:21;;;;;;;;;;;;;;;15.35;57.48;101270.97;4987790;28;19921;-68
2022/09/04 03:15:51;;;;;;;;;;;;;;;15.38;57.06;101276.03;4999628;28;19922;-68
2022/09/04 03:18:20;;;;;;;;;;;;;;;15.41;56.47;101276.69;5001058;28;19983;-68
2022/09/04 03:20:50;;;;;;;;;;;;;;;15.30;57.26;101292.38;5006267;28;20012;-68
2022/09/04 03:23:20;;;;;;;;;;;;;;;15.08;58.42;101292.00;5006801;28;19921;-69
2022/09/04 03:26:12;;;;;;;;;;;;;;;15.35;57.87;101292.94;5006291;28;20360;-68
2022/09/04 03:28:45;;;;;;;;;;;;;;;15.42;58.00;101296.06;5004777;28;19925;-68
2022/09/04 03:31:23;;;;;;;;;;;;;;;15.45;57.95;101301.13;5006531;28;19921;-68
2022/09/04 03:33:52;;;;;;;;;;;;;;;15.42;57.32;101299.53;5006048;28;19921;-68
2022/09/04 03:36:22;;;;;;;;;;;;;;;15.57;57.75;101300.41;5007239;28;19973;-68
2022/09/04 03:38:50;;;;;;;;;;;;;;;15.53;57.85;101301.53;5005859;28;20377;-68
2022/09/04 03:41:28;;;;;;;;;;;;;;;15.34;57.95;101304.47;5006898;28;19987;-68
2022/09/04 03:44:02;;;;;;;;;;;;;;;15.01;59.41;101303.91;5005253;28;19922;-68
2022/09/04 03:46:37;;;;;;;;;;;;;;;15.17;59.23;101311.75;5004320;28;19922;-68
2022/09/04 03:49:12;;;;;;;;;;;;;;;15.00;59.62;101315.44;5002263;28;20010;-68
2022/09/04 03:51:43;;;;;;;;;;;;;;;15.02;60.13;101308.25;4997120;28;19971;-68
2022/09/04 03:54:15;;;;;;;;;;;;;;;15.06;60.07;101315.03;5006383;28;19961;-68
2022/09/04 03:56:49;;;;;;;;;;;;;;;15.23;59.18;101321.91;5006336;28;19952;-68
2022/09/04 03:59:24;;;;;;;;;;;;;;;15.04;60.23;101315.13;5004660;28;19957;-68
2022/09/04 04:01:57;;;;;;;;;;;;;;;15.22;60.17;101318.44;5003642;28;19932;-68
2022/09/04 04:04:38;;;;;;;;;;;;;;;15.34;59.72;101322.09;4995023;28;19964;-68
2022/09/04 04:07:09;;;;;;;;;;;;;;;15.47;59.60;101326.53;4996713;28;19957;-68
2022/09/04 04:09:43;;;;;;;;;;;;;;;15.47;59.50;101321.25;5004117;28;19971;-68
2022/09/04 04:12:17;;;;;;;;;;;;;;;15.38;60.12;101326.25;5006012;28;19925;-68
2022/09/04 04:14:52;;;;;;;;;;;;;;;15.34;60.44;101325.59;5006387;28;20531;-68
2022/09/04 04:17:26;;;;;;;;;;;;;;;15.35;60.04;101324.66;4993261;28;19922;-68
2022/09/04 04:20:01;;;;;;;;;;;;;;;15.32;59.98;101319.56;4985346;28;19926;-68
2022/09/04 04:22:33;;;;;;;;;;;;;;;15.38;59.69;101318.31;4986727;28;20017;-68
2022/09/04 04:25:23;;;;;;;;;;;;;;;15.34;59.46;101309.75;4985277;28;19921;-69
2022/09/04 04:27:57;;;;;;;;;;;;;;;15.24;59.62;101313.91;5003011;28;19922;-68
2022/09/04 04:30:27;;;;;;;;;;;;;;;15.25;59.59;101323.53;5004104;28;20007;-68
2022/09/04 04:33:07;;;;;;;;;;;;;;;14.99;60.65;101324.28;4988356;28;19964;-68
2022/09/04 04:35:37;;;;;;;;;;;;;;;14.92;61.00;101329.09;5007033;28;19928;-68
2022/09/04 04:38:12;;;;;;;;;;;;;;;14.91;60.55;101331.81;5010512;28;19956;-68
2022/09/04 04:40:45;;;;;;;;;;;;;;;14.91;60.11;101339.72;4994123;28;19945;-68
2022/09/04 04:43:16;;;;;;;;;;;;;;;14.95;60.09;101336.81;4990326;28;19922;-68
2022/09/04 04:45:49;;;;;;;;;;;;;;;14.92;60.20;101328.25;4990816;28;19922;-68
2022/09/04 04:48:24;;;;;;;;;;;;;;;14.96;60.05;101329.75;4989555;28;19989;-68
2022/09/04 04:51:00;;;;;;;;;;;;;;;14.85;60.72;101333.03;4994721;28;19922;-68
2022/09/04 04:53:30;;;;;;;;;;;;;;;15.18;59.07;101329.28;5007976;28;19921;-68
2022/09/04 04:55:59;;;;;;;;;;;;;;;15.13;59.62;101332.22;5008713;28;19976;-68
2022/09/04 04:58:29;;;;;;;;;;;;;;;15.11;59.36;101334.94;5008077;28;19925;-68
2022/09/04 05:01:04;;;;;;;;;;;;;;;14.95;60.39;101333.34;5009464;28;20011;-68
2022/09/04 05:03:38;;;;;;;;;;;;;;;14.95;60.81;101343.91;5008790;28;19987;-68
2022/09/04 05:06:10;;;;;;;;;;;;;;;15.14;59.90;101347.13;5004800;28;20392;-68
2022/09/04 05:08:40;;;;;;;;;;;;;;;15.22;60.36;101357.22;5006231;28;19922;-68
2022/09/04 05:11:10;;;;;;;;;;;;;;;15.35;59.91;101356.38;5002303;28;19921;-68
2022/09/04 05:13:44;;;;;;;;;;;;;;;15.43;59.54;101374.41;5008517;28;19921;-68
2022/09/04 05:16:16;;;;;;;;;;;;;;;15.54;59.35;101374.63;5009237;28;20248;-68
2022/09/04 05:18:45;;;;;;;;;;;;;;;15.66;58.63;101379.16;5008401;28;20124;-68
2022/09/04 05:21:16;;;;;;;;;;;;;;;15.85;58.02;101384.13;5006876;28;20301;-68
2022/09/04 05:23:49;;;;;;;;;;;;;;;16.02;57.47;101391.81;4988830;28;20333;-68
2022/09/04 05:26:21;;;;;;;;;;;;;;;16.14;57.57;101396.34;5008460;28;19925;-68
2022/09/04 05:28:50;;;;;;;;;;;;;;;16.55;56.19;101401.59;5008053;28;19983;-68
2022/09/04 05:31:21;;;;;;;;;;;;;;;16.68;56.29;101412.22;5006102;28;20373;-68
2022/09/04 05:33:51;;;;;;;;;;;;;;;16.88;55.29;101409.97;5009394;28;19953;-69
2022/09/04 05:36:20;;;;;;;;;;;;;;;17.22;55.28;101419.09;5008016;28;19922;-69
2022/09/04 05:38:55;;;;;;;;;;;;;;;17.47;53.84;101418.28;5009495;28;20030;-69
2022/09/04 05:41:30;;;;;;;;;;;;;;;17.71;53.41;101421.88;5009332;28;19921;-69
2022/09/04 05:44:05;;;;;;;;;;;;;;;18.07;52.68;101422.88;5009898;28;19926;-69
2022/09/04 05:46:38;;;;;;;;;;;;;;;18.49;51.51;101427.69;5008590;28;20381;-69
2022/09/04 05:49:13;;;;;;;;;;;;;;;18.61;51.43;101431.28;5006351;28;19999;-69
2022/09/04 05:51:49;;;;;;;;;;;;;;;18.88;50.20;101429.25;5007287;28;19921;-69
2022/09/04 05:54:22;;;;;;;;;;;;;;;18.77;49.68;101424.69;5006834;28;19921;-69
2022/09/04 05:56:57;;;;;;;;;;;;;;;18.98;49.31;101422.25;5005099;28;20362;-69
2022/09/04 05:59:38;;;;;;;;;;;;;;;18.70;50.58;101427.97;5003810;28;20428;-69
2022/09/04 06:02:17;;;;;;;;;;;;;;;18.63;51.10;101434.66;5006363;28;19922;-69
2022/09/04 06:04:55;;;;;;;;;;;;;;;18.87;50.65;101435.50;5007117;28;19929;-69
2022/09/04 06:07:26;;;;;;;;;;;;;;;18.65;50.33;101440.72;5007724;28;19953;-69
2022/09/04 06:09:58;;;;;;;;;;;;;;;18.96;50.50;101442.75;5000746;28;19921;-69
2022/09/04 06:12:33;;;;;;;;;;;;;;;19.06;50.46;101438.47;4988789;28;20329;-69
2022/09/04 06:15:15;;;;;;;;;;;;;;;19.31;50.71;101437.44;4989145;28;19945;-69
2022/09/04 06:17:49;;;;;;;;;;;;;;;19.60;49.64;101435.19;4988595;28;20384;-69
2022/09/04 06:20:28;;;;;;;;;;;;;;;19.78;48.61;101449.72;4994078;28;19957;-69
2022/09/04 06:23:02;;;;;;;;;;;;;;;19.80;48.94;101448.66;4997218;28;19922;-69
2022/09/04 06:25:41;;;;;;;;;;;;;;;19.82;48.44;101445.84;5003318;28;19956;-69
2022/09/04 06:28:15;;;;;;;;;;;;;;;19.77;48.10;101451.53;5004064;28;20393;-69
2022/09/04 06:30:45;;;;;;;;;;;;;;;19.95;47.47;101457.22;5006821;28;20341;-69
2022/09/04 06:33:16;;;;;;;;;;;;;;;20.22;47.32;101443.50;5006783;28;19921;-69
2022/09/04 06:36:00;;;;;;;;;;;;;;;20.55;47.33;101446.09;5006645;28;19983;-69
2022/09/04 06:38:46;;;;;;;;;;;;;;;20.96;44.95;101450.66;5005349;28;20369;-69
2022/09/04 06:41:24;;;;;;;;;;;;;;;20.91;45.45;101452.03;5008136;28;19948;-68
2022/09/04 06:43:56;;;;;;;;;;;;;;;21.40;43.95;101454.91;4990882;28;20398;-68
2022/09/04 06:46:25;;;;;;;;;;;;;;;21.76;43.56;101462.44;4988204;28;19964;-68
2022/09/04 06:48:59;;;;;;;;;;;;;;;21.89;43.83;101451.53;4986123;28;20269;-68
2022/09/04 06:51:33;;;;;;;;;;;;;;;22.42;42.34;101453.94;5006729;28;19929;-68
2022/09/04 06:54:04;;;;;;;;;;;;;;;22.67;42.37;101458.75;5005665;28;19921;-68
2022/09/04 06:56:41;;;;;;;;;;;;;;;23.18;41.41;101464.69;5008117;28;19922;-69
2022/09/04 06:59:21;;;;;;;;;;;;;;;23.14;41.78;101465.09;4996827;28;19953;-69
2022/09/04 07:01:55;;;;;;;;;;;;;;;23.44;39.78;101470.31;5007195;28;20012;-69
2022/09/04 07:04:29;;;;;;;;;;;;;;;22.77;42.38;101481.03;4996816;28;19971;-69
2022/09/04 07:07:02;;;;;;;;;;;;;;;23.19;41.14;101477.09;5001269;28;19952;-69
2022/09/04 07:09:30;;;;;;;;;;;;;;;22.67;42.11;101486.38;5003498;28;20525;-69
2022/09/04 07:12:06;;;;;;;;;;;;;;;22.13;43.13;101492.13;4997919;28;19984;-69
2022/09/04 07:14:41;;;;;;;;;;;;;;;22.30;43.15;101490.63;4995101;28;19922;-68
2022/09/04 07:17:13;;;;;;;;;;;;;;;23.00;42.02;101484.28;4987664;28;19921;-68
2022/09/04 07:19:52;;;;;;;;;;;;;;;22.72;42.23;101488.63;4986125;28;19972;-68
2022/09/04 07:22:30;;;;;;;;;;;;;;;22.88;42.03;101491.59;4988009;28;19969;-68
2022/09/04 07:25:12;;;;;;;;;;;;;;;23.38;40.88;101486.06;4988066;28;19933;-68
2022/09/04 07:27:47;;;;;;;;;;;;;;;24.30;39.92;101495.09;4987835;28;19948;-68
2022/09/04 07:30:16;;;;;;;;;;;;;;;24.16;38.95;101499.13;5005019;28;19925;-68
2022/09/04 07:32:45;;;;;;;;;;;;;;;24.17;39.66;101501.63;5008448;28;19921;-69
2022/09/04 07:35:17;;;;;;;;;;;;;;;24.00;39.82;101497.03;5005798;28;19961;-68
2022/09/04 07:37:48;;;;;;;;;;;;;;;23.94;39.97;101502.16;5007406;28;20110;-68
2022/09/04 07:40:16;;;;;;;;;;;;;;;24.40;39.34;101495.88;5006650;28;19968;-68
2022/09/04 07:42:47;;;;;;;;;;;;;;;24.02;39.92;101491.56;5008761;28;20281;-68
2022/09/04 07:45:21;;;;;;;;;;;;;;;23.92;40.36;101496.94;5007003;28;19940;-68
2022/09/04 07:47:54;;;;;;;;;;;;;;;23.94;39.79;101494.97;5005399;28;19929;-68
2022/09/04 07:50:24;;;;;;;;;;;;;;;24.51;39.67;101504.56;5002751;28;20527;-68
2022/09/04 07:53:03;;;;;;;;;;;;;;;24.63;38.57;101502.50;4995245;28;19921;-69
2022/09/04 07:55:35;;;;;;;;;;;;;;;24.76;39.01;101497.59;4996815;28;20443;-68
2022/09/04 07:58:24;;;;;;;;;;;;;;;24.71;38.50;101499.91;4994774;28;19921;-69
2022/09/04 08:00:56;;;;;;;;;;;;;;;24.70;38.38;101506.25;4998974;28;20289;-69
2022/09/04 08:03:32;;;;;;;;;;;;;;;23.50;40.36;101501.03;5003696;28;19957;-69
2022/09/04 08:06:03;;;;;;;;;;;;;;;24.83;39.07;101496.03;4999706;28;19925;-69
2022/09/04 08:08:52;;;;;;;;;;;;;;;25.76;37.11;101503.50;5005602;28;19927;-69
2022/09/04 08:11:26;;;;;;;;;;;;;;;26.04;36.35;101505.00;4997175;28;20424;-69
2022/09/04 08:14:05;;;;;;;;;;;;;;;26.08;36.47;101505.53;4996125;28;20333;-69
2022/09/04 08:16:39;;;;;;;;;;;;;;;26.15;36.31;101514.63;4975159;28;19921;-69
2022/09/04 08:19:11;;;;;;;;;;;;;;;25.97;38.00;101512.03;4993685;28;19929;-69
2022/09/04 08:21:40;;;;;;;;;;;;;;;25.25;38.63;101523.06;5007222;28;19921;-69
2022/09/04 08:24:18;;;;;;;;;;;;;;;24.95;37.78;101518.94;5004898;28;19959;-69
2022/09/04 08:26:47;;;;;;;;;;;;;;;24.94;38.88;101519.13;5006987;28;19964;-69
2022/09/04 08:29:24;;;;;;;;;;;;;;;25.29;38.60;101518.25;5005660;28;19922;-69
2022/09/04 08:31:56;;;;;;;;;;;;;;;25.11;38.45;101524.47;5004480;28;20004;-69
2022/09/04 08:34:34;;;;;;;;;;;;;;;24.28;39.40;101514.00;5005174;28;20153;-69
2022/09/04 08:37:07;;;;;;;;;;;;;;;25.42;38.52;101516.84;4994053;28;19957;-69
2022/09/04 08:39:38;;;;;;;;;;;;;;;26.15;36.40;101526.22;5005967;28;20416;-68
2022/09/04 08:42:20;;;;;;;;;;;;;;;25.60;36.84;101511.47;5005997;28;20456;-68
2022/09/04 08:45:01;;;;;;;;;;;;;;;25.76;37.03;101522.31;5005011;28;19960;-68
2022/09/04 08:47:43;;;;;;;;;;;;;;;25.63;37.14;101525.44;5004176;28;20520;-68
2022/09/04 08:50:22;;;;;;;;;;;;;;;26.57;36.63;101523.53;4995515;28;19922;-68
2022/09/04 08:53:12;;;;;;;;;;;;;;;26.99;34.86;101525.34;5000290;28;19958;-69
2022/09/04 08:55:47;;;;;;;;;;;;;;;26.91;34.41;101531.56;5003806;28;19922;-69
2022/09/04 08:58:31;;;;;;;;;;;;;;;26.16;36.05;101529.75;5005518;28;19944;-68
2022/09/04 09:01:09;;;;;;;;;;;;;;;26.20;36.15;101527.63;4980523;28;20365;-68
2022/09/04 09:03:52;;;;;;;;;;;;;;;26.93;35.60;101520.63;4989860;28;19969;-68
2022/09/04 09:06:35;;;;;;;;;;;;;;;26.94;34.60;101528.53;4995484;28;20450;-68
2022/09/04 09:09:20;;;;;;;;;;;;;;;27.60;33.75;101532.09;5004841;28;19949;-68
2022/09/04 09:12:04;;;;;;;;;;;;;;;26.82;35.39;101527.16;5004051;28;19925;-68
2022/09/04 09:14:51;;;;;;;;;;;;;;;25.49;37.36;101528.66;5005840;28;19921;-68
2022/09/04 09:17:30;;;;;;;;;;;;;;;25.83;36.87;101534.09;4987716;28;19921;-68
2022/09/04 09:19:59;;;;;;;;;;;;;;;25.05;39.33;101535.84;5003236;28;20345;-68
2022/09/04 09:22:42;;;;;;;;;;;;;;;25.50;38.11;101522.25;5009251;28;19922;-68
2022/09/04 09:25:19;;;;;;;;;;;;;;;25.13;39.03;101530.53;4998162;28;19925;-68
2022/09/04 09:28:00;;;;;;;;;;;;;;;25.23;38.06;101527.78;5007834;28;19925;-68
2022/09/04 09:30:32;;;;;;;;;;;;;;;25.34;38.43;101529.38;4983968;28;19926;-68
2022/09/04 09:33:17;;;;;;;;;;;;;;;25.68;37.73;101531.16;5008712;28;20020;-68
2022/09/04 09:36:02;;;;;;;;;;;;;;;25.66;38.07;101532.31;5006387;28;19925;-69
2022/09/04 09:38:42;;;;;;;;;;;;;;;26.42;36.61;101535.09;5008841;28;19980;-69
2022/09/04 09:41:30;;;;;;;;;;;;;;;25.99;37.34;101534.19;5007141;28;19921;-69
2022/09/04 09:44:14;;;;;;;;;;;;;;;26.19;37.73;101544.75;5025254;28;19925;-69
2022/09/04 09:47:00;;;;;;;;;;;;;;;26.06;37.41;101531.72;5027768;28;19921;-68
2022/09/04 09:49:41;;;;;;;;;;;;;;;26.31;37.06;101528.16;5012835;28;20374;-68
2022/09/04 09:52:13;;;;;;;;;;;;;;;26.59;36.43;101529.59;5007080;28;19927;-68
2022/09/04 09:55:10;;;;;;;;;;;;;;;26.14;36.79;101535.28;5006835;28;19984;-69
2022/09/04 09:57:50;;;;;;;;;;;;;;;25.72;38.02;101533.53;5009236;28;20360;-68
2022/09/04 10:00:17;;;;;;;;;;;;;;;25.54;38.11;101542.47;5002856;28;20440;-68
2022/09/04 10:02:55;;;;;;;;;;;;;;;24.96;39.25;101533.22;5007211;28;19948;-68
2022/09/04 10:05:42;;;;;;;;;;;;;;;25.62;38.87;101528.25;5001792;28;19965;-68
2022/09/04 10:08:26;;;;;;;;;;;;;;;25.96;37.97;101537.22;4993622;28;19925;-68
2022/09/04 10:11:08;;;;;;;;;;;;;;;26.38;37.59;101536.44;4981378;28;19928;-67
2022/09/04 10:13:55;;;;;;;;;;;;;;;26.23;37.36;101535.38;5004767;28;20035;-67
2022/09/04 10:16:49;;;;;;;;;;;;;;;25.71;38.84;101531.84;5009376;28;19925;-67
2022/09/04 10:19:27;;;;;;;;;;;;;;;26.02;37.51;101524.97;4971290;28;19925;-67
2022/09/04 10:22:15;;;;;;;;;;;;;;;26.51;37.46;101521.50;5008034;28;19953;-68
2022/09/04 10:25:01;;;;;;;;;;;;;;;26.16;37.64;101529.75;4972816;28;20400;-67
2022/09/04 10:27:36;;;;;;;;;;;;;;;26.49;37.65;101530.75;5000268;28;19979;-67
2022/09/04 10:30:04;;;;;;;;;;;;;;;27.01;36.35;101529.53;5018973;28;19930;-68
2022/09/04 10:32:47;;;;;;;;;;;;;;;27.29;36.73;101530.06;5025267;28;19921;-67
2022/09/04 10:35:20;;;;;;;;;;;;;;;27.20;36.44;101533.75;5010180;28;19929;-67
2022/09/04 10:38:02;;;;;;;;;;;;;;;27.51;35.19;101531.25;5006568;28;19961;-67
2022/09/04 10:40:37;;;;;;;;;;;;;;;27.89;34.28;101524.28;4985462;28;20427;-68
2022/09/04 10:43:29;;;;;;;;;;;;;;;27.34;36.08;101529.56;5006599;28;19921;-68
2022/09/04 10:46:00;;;;;;;;;;;;;;;27.21;36.78;101527.38;5007798;28;19961;-68
2022/09/04 10:48:39;;;;;;;;;;;;;;;26.82;36.41;101529.00;5007359;28;19964;-68
2022/09/04 10:51:19;;;;;;;;;;;;;;;26.49;37.01;101533.44;5006883;28;19921;-68
2022/09/04 10:53:56;;;;;;;;;;;;;;;26.64;37.61;101537.19;4988258;28;19961;-67
2022/09/04 10:56:25;;;;;;;;;;;;;;;26.54;37.01;101525.72;4998172;28;19975;-67
2022/09/04 10:59:20;;;;;;;;;;;;;;;26.74;36.95;101527.13;5001290;28;20001;-67
2022/09/04 11:01:55;;;;;;;;;;;;;;;27.09;36.82;101526.00;4986928;28;19922;-67
2022/09/04 11:04:38;;;;;;;;;;;;;;;27.37;36.68;101524.69;4997193;28;20011;-68
2022/09/04 11:07:17;;;;;;;;;;;;;;;27.35;36.18;101529.38;4999007;28;19965;-67
2022/09/04 11:09:54;;;;;;;;;;;;;;;26.94;35.65;101528.53;5006668;28;20022;-67
2022/09/04 11:12:44;;;;;;;;;;;;;;;27.58;35.33;101529.56;5004956;28;20015;-66
2022/09/04 11:15:22;;;;;;;;;;;;;;;27.66;34.57;101518.78;5001533;28;19925;-67
2022/09/04 11:17:59;;;;;;;;;;;;;;;27.75;35.04;101520.47;5004743;28;19922;-68
2022/09/04 11:20:34;;;;;;;;;;;;;;;28.19;33.76;101515.47;5006599;28;19945;-67
2022/09/04 11:23:21;;;;;;;;;;;;;;;27.70;35.01;101530.91;5010169;28;20484;-67
2022/09/04 11:26:12;;;;;;;;;;;;;;;27.18;35.83;101524.16;5006938;28;19921;-67
2022/09/04 11:28:50;;;;;;;;;;;;;;;27.91;35.18;101514.16;5005802;28;19928;-67
2022/09/04 11:31:26;;;;;;;;;;;;;;;28.74;33.51;101520.75;5004997;28;19921;-66
2022/09/04 11:34:18;;;;;;;;;;;;;;;28.05;34.11;101516.97;5006850;28;20373;-67
2022/09/04 11:37:01;;;;;;;;;;;;;;;27.24;35.52;101512.72;4974740;28;20001;-67
2022/09/04 11:39:38;;;;;;;;;;;;;;;27.19;35.74;101512.41;4992082;28;20365;-67
2022/09/04 11:42:19;;;;;;;;;;;;;;;27.39;35.66;101511.88;5007403;28;19961;-67
2022/09/04 11:45:09;;;;;;;;;;;;;;;28.02;34.36;101514.63;5006072;28;19921;-67
2022/09/04 11:47:56;;;;;;;;;;;;;;;28.36;33.75;101514.38;5000491;28;20293;-67
2022/09/04 11:50:55;;;;;;;;;;;;;;;28.88;32.77;101501.09;5004538;28;20481;-67
2022/09/04 11:53:36;;;;;;;;;;;;;;;29.57;32.18;101507.25;5005126;28;20428;-67
2022/09/04 11:56:08;;;;;;;;;;;;;;;29.61;32.23;101508.56;5004421;28;19966;-67
2022/09/04 11:58:50;;;;;;;;;;;;;;;28.64;32.82;101501.19;5004193;28;19944;-67
2022/09/04 12:01:27;;;;;;;;;;;;;;;28.98;32.32;101500.84;5016121;28;19921;-67
2022/09/04 12:04:19;;;;;;;;;;;;;;;28.41;33.10;101497.66;5004615;28;19921;-67
2022/09/04 12:06:54;;;;;;;;;;;;;;;28.69;33.08;101504.25;5005669;28;20362;-67
2022/09/04 12:09:38;;;;;;;;;;;;;;;28.92;32.47;101496.16;5005251;28;19975;-66
2022/09/04 12:12:16;;;;;;;;;;;;;;;28.28;34.13;101500.91;5006983;28;19953;-67
2022/09/04 12:14:53;;;;;;;;;;;;;;;28.74;33.45;101493.78;5007301;28;20067;-67
2022/09/04 12:17:37;;;;;;;;;;;;;;;29.59;31.81;101494.41;5021699;28;19983;-67
2022/09/04 12:20:16;;;;;;;;;;;;;;;29.09;31.48;101496.88;5024070;28;19921;-67
2022/09/04 12:23:01;;;;;;;;;;;;;;;28.42;33.08;101493.91;5025182;28;19987;-68
2022/09/04 12:25:41;;;;;;;;;;;;;;;29.04;32.21;101491.19;5021159;28;20392;-68
2022/09/04 12:28:22;;;;;;;;;;;;;;;28.62;32.16;101495.16;5002107;28;20007;-68
2022/09/04 12:30:58;;;;;;;;;;;;;;;28.45;31.84;101490.88;4957859;28;19936;-68
2022/09/04 12:33:45;;;;;;;;;;;;;;;29.44;30.66;101489.00;4966777;28;20421;-68
2022/09/04 12:36:21;;;;;;;;;;;;;;;28.95;32.25;101496.66;4998781;28;20073;-68
2022/09/04 12:39:14;;;;;;;;;;;;;;;28.77;31.37;101490.72;5006615;28;20361;-68
2022/09/04 12:41:49;;;;;;;;;;;;;;;27.60;33.21;101497.91;5004539;28;19968;-68
2022/09/04 12:44:21;;;;;;;;;;;;;;;27.65;33.36;101495.53;5005051;28;19972;-68
2022/09/04 12:47:04;;;;;;;;;;;;;;;27.76;33.92;101500.56;5003700;28;19925;-68
2022/09/04 12:49:40;;;;;;;;;;;;;;;28.47;32.10;101502.34;5004475;28;19953;-68
2022/09/04 12:52:16;;;;;;;;;;;;;;;28.20;32.49;101494.69;5003776;28;19921;-68
2022/09/04 12:54:50;;;;;;;;;;;;;;;27.45;33.43;101494.22;4993191;28;19922;-68
2022/09/04 12:57:26;;;;;;;;;;;;;;;27.61;33.63;101501.44;5024528;28;20388;-67
2022/09/04 13:00:04;;;;;;;;;;;;;;;27.19;33.93;101502.47;5003517;28;19975;-68
2022/09/04 13:02:34;;;;;;;;;;;;;;;27.13;33.86;101504.97;5020298;28;20340;-68
2022/09/04 13:05:06;;;;;;;;;;;;;;;27.38;33.90;101495.91;5014562;28;19987;-68
2022/09/04 13:07:44;;;;;;;;;;;;;;;27.45;33.23;101499.59;5008165;28;19921;-68
2022/09/04 13:10:15;;;;;;;;;;;;;;;26.50;35.29;101500.16;5007652;28;19999;-68
2022/09/04 13:12:45;;;;;;;;;;;;;;;26.73;35.46;101509.28;5009364;28;20317;-68
2022/09/04 13:15:18;;;;;;;;;;;;;;;26.81;34.80;101495.84;5007265;28;19960;-68
2022/09/04 13:17:50;;;;;;;;;;;;;;;27.87;34.40;101493.97;5008870;28;19926;-68
2022/09/04 13:20:19;;;;;;;;;;;;;;;28.06;32.85;101491.72;5010432;28;19952;-68